רגע לפני שאתם עוזבים...
יש לנו ב
הצעה מיוחד עבורכם!
מספר שירותים שכדאי שתכירו
| לוחית | שעת חיפוש | ||||
| 1009011 | יונדאי קוריאה הדרומית | I25 | 2012 | 01/09/2026 | 22:28:16 |
| 88939403 | מזדה יפן | MAZDA CX-30 | 2024 | 01/09/2026 | 22:28:12 |
| 6714011 | פורד גרמניה | FOCUS | 2014 | 01/09/2026 | 22:28:08 |
| 39416803 | פורד ארהב" | - | 2023 | 01/09/2026 | 22:28:07 |
| 12020501 | טויוטה תאילנד | HILUX | 2018 | 01/09/2026 | 22:28:06 |
| 345898 | ב מ וו גרמניה | - | 1973 | 01/09/2026 | 22:28:05 |
| 1172765 | סאן יאנג טיואן | - | 2008 | 01/09/2026 | 22:28:05 |
| 7523130 | ג'ון דיר ארהב" | - | 2014 | 01/09/2026 | 22:28:04 |
| 6646918 | פולקסווגן גרמניה | PASSAT | 1998 | 01/09/2026 | 22:28:03 |
| 3279164 | פולקסווגן מקסיקה | JETTA | 2008 | 01/09/2026 | 22:28:01 |
| 1364028 | סאן יאנג טיואן | - | 2016 | 01/09/2026 | 22:28:01 |
| 34868402 | הונדה בריטניה | CIVIC 5D | 2021 | 01/09/2026 | 22:27:52 |
| 50362103 | מרצדס בנץ גרמנ | - | 2023 | 01/09/2026 | 22:27:51 |
| 2764661 | טויוטה יפן | CAMRY | 2007 | 01/09/2026 | 22:27:50 |
| 1485785 | קיה קוריאה הדרומית | FORTE | 2016 | 01/09/2026 | 22:27:48 |
| 2148278 | מרוטי סוזוקי הודו | ALTO | 2011 | 01/09/2026 | 22:27:45 |
| 6208231 | הונדה יפן | ACCORD | 2015 | 01/09/2026 | 22:27:42 |
| 7206062 | פורד ספרד | FOCUS | 2007 | 01/09/2026 | 22:27:40 |
| 3362739 | שברולט ארהב" | - | 2016 | 01/09/2026 | 22:27:38 |
| 1138451 | סיטרואן ספרד | BERLINGO | 2003 | 01/09/2026 | 22:27:38 |
| 7362566 | טויוטה יפן | COROLLA | 2008 | 01/09/2026 | 22:27:37 |
| 1806914 | יונדאי קוריאה הדרומית | ELANTRA | 2005 | 01/09/2026 | 22:27:36 |
| 78834703 | ימהה צרפת | - | 2024 | 01/09/2026 | 22:27:35 |
| 1146610 | טויוטה יפן | YARIS | 2001 | 01/09/2026 | 22:27:30 |
| 9134275 | מרכבי נוע בעמ | - | 2014 | 01/09/2026 | 22:27:30 |
| 7750038 | קיה סלובקיה | SPORTAGE | 2016 | 01/09/2026 | 22:27:11 |
| 18192002 | מרצדס בנץ גרמנ | - | 2020 | 01/09/2026 | 22:27:07 |
| 4490534 | אופל ד. קוריאה | MOKKA | 2015 | 01/09/2026 | 22:27:04 |
| 8321680 | קרייזלר מכסיקו | - | 2017 | 01/09/2026 | 22:27:03 |
| 93728501 | סקודה צ'כיה | OCTAVIA | 2021 | 01/09/2026 | 22:27:01 |
| 90647501 | שברולט ארהב" | - | 2018 | 01/09/2026 | 22:26:59 |
| 3489771 | מזדה יפן | MAZDA 3 | 2010 | 01/09/2026 | 22:26:56 |
| 80995501 | טויוטה טורקיה | C-HR HYBRID | 2019 | 01/09/2026 | 22:26:56 |
| 52562101 | יונדאי קוריאה הדרומית | SANTA FE | 2018 | 01/09/2026 | 22:26:54 |
| 24520903 | ב מ וו ארהב" | X6 XDRIVE30D | 2022 | 01/09/2026 | 22:26:51 |
| 4816413 | אלפא רומיאו איטליה | ALFA MIT0 | 2012 | 01/09/2026 | 22:26:50 |
| 1190560 | טויוטה יפן | RAV 4 | 2006 | 01/09/2026 | 22:26:47 |
| 3818771 | מזדה יפן | MAZDA 3 | 2010 | 01/09/2026 | 22:26:46 |
| 1383810 | טויוטה יפן | COROLLA | 2001 | 01/09/2026 | 22:26:46 |
| 74182802 | קיה סלובקיה | SPORTAGE | 2021 | 01/09/2026 | 22:26:44 |
| 67304901 | וולבו בלגיה | V40 T3 | 2019 | 01/09/2026 | 22:26:42 |
| 3424116 | ניסאן יפן | מקסימה L2 ES 4 T/A | 1996 | 01/09/2026 | 22:26:41 |
| 82789902 | טויוטה צרפת | YARIS CROSS HSD | 2022 | 01/09/2026 | 22:26:40 |
| 20171903 | מ.ג סין | MG4 | 2023 | 01/09/2026 | 22:26:38 |
| 31164003 | מזדה תאילנד | MAZDA 2 | 2023 | 01/09/2026 | 22:26:34 |
| 1666023 | סובארו יפן | אימפרזה 0061 TA 2 כר | 1999 | 01/09/2026 | 22:26:32 |
| 1800866 | מזדה יפן | MAZDA 6 | 2008 | 01/09/2026 | 22:26:29 |
| 1022250 | טויוטה בריטניה | COROLLA RUNX | 2003 | 01/09/2026 | 22:26:24 |
| 31717602 | ב מ וו ארהב" | X4 M COMPE | 2023 | 01/09/2026 | 22:26:23 |
| 3489771 | מזדה יפן | MAZDA 3 | 2010 | 01/09/2026 | 22:26:22 |
| 1081268 | סוזוקי יפן | SWIFT | 2009 | 01/09/2026 | 22:26:21 |
| 88275102 | מיצובישי תאילנד | SPACE STAR | 2022 | 01/09/2026 | 22:26:20 |
| 74059903 | טויוטה טורקיה | TOYOTA C-HR | 2024 | 01/09/2026 | 22:26:19 |
| 4670436 | טויוטה יפן | COROLLA | 2002 | 01/09/2026 | 22:26:18 |
| 1668213 | שברולט קוריאה הדרומית | AVEO | 2006 | 01/09/2026 | 22:26:14 |
| 81823403 | אקספנג סין | G6 | 2024 | 01/09/2026 | 22:26:13 |
| 43706402 | טויוטה יפן | RAV 4 HYBRID | 2021 | 01/09/2026 | 22:26:13 |
| 2856169 | מזדה יפן | MAZDA3-SPORT | 2009 | 01/09/2026 | 22:26:13 |
| 50983803 | מזדה יפן | MAZDA3 | 2023 | 01/09/2026 | 22:26:12 |
| 3885172 | ביואיק ארהב" | LACROSSE | 2010 | 01/09/2026 | 22:26:10 |
| 1086883 | מרצדס בנץ גרמנ | - | 1983 | 01/09/2026 | 22:26:10 |
| 5570826 | טויוטה טורקיה | COROLLA HSD SDN | 2022 | 01/09/2026 | 22:26:09 |
| 8455938 | קיה סלובקיה | SPORTAGE | 2016 | 01/09/2026 | 22:26:08 |
| 68983403 | קיה קוריאה הדרומית | PICANTO | 2024 | 01/09/2026 | 22:26:06 |
| 9327029 | מזדה יפן | DEMIO | 2001 | 01/09/2026 | 22:26:05 |
| 1720973 | מיצובישי יפן | LANCER | 2010 | 01/09/2026 | 22:26:04 |
| 46194603 | טויוטה תאילנד | HILUX | 2023 | 01/09/2026 | 22:26:03 |
| 42557102 | רנו צרפת | KANGOO | 2021 | 01/09/2026 | 22:26:03 |
| 2159333 | ניסאן בריטניה | QASHQAI | 2015 | 01/09/2026 | 22:26:02 |
| 7493932 | קרייזלר ארהב" | GRAND CHEROKEE | 2015 | 01/09/2026 | 22:26:02 |
| 1342767 | פיאט פולין | FIAT 500 1.2 | 2010 | 01/09/2026 | 22:26:00 |
| 2953656 | טויוטה טורקיה | COROLLA | 2004 | 01/09/2026 | 22:25:58 |
| 85646201 | אלפא רומיאו איטליה | GIULIA | 2020 | 01/09/2026 | 22:25:56 |
| 3489771 | מזדה יפן | MAZDA 3 | 2010 | 01/09/2026 | 22:25:55 |
| 6344559 | שברולט קוריאה הדרומית | AVEO | 2005 | 01/09/2026 | 22:25:54 |
| 1061674 | מרצדס גרמניה | C180 CGI | 2011 | 01/09/2026 | 22:25:53 |
| 77917703 | מיצובישי יפן | ASX | 2024 | 01/09/2026 | 22:25:53 |
| 9008233 | הונדה בריטניה | CIVIC | 2016 | 01/09/2026 | 22:25:53 |
| 9678328 | סוזוקי יפן | ליאנה | 2006 | 01/09/2026 | 22:25:49 |
| 2018161 | מזדה יפן | MAZDA 3 | 2007 | 01/09/2026 | 22:25:49 |
| 8180838 | קיה קוריאה הדרומית | PICANTO | 2016 | 01/09/2026 | 22:25:45 |
| 72481602 | הונדה איטליה | - | 2022 | 01/09/2026 | 22:25:44 |
| 27619001 | מרצדס גרמניה | E300E | 2020 | 01/09/2026 | 22:25:43 |
| 18848404 | ב מ וו מקסיקו | M240I XDRIVE | 2025 | 01/09/2026 | 22:25:41 |
| 22787203 | סיטרואן ספרד | BERLINGO | 2023 | 01/09/2026 | 22:25:41 |
| 16664402 | טויוטה בריטניה | COROLLA TS HSD | 2020 | 01/09/2026 | 22:25:39 |
| 41271501 | קיה קוריאה הדרומית | NIRO | 2018 | 01/09/2026 | 22:25:35 |
| 3861976 | יונדאי צ'כיה | I30 | 2011 | 01/09/2026 | 22:25:26 |
| 1125967 | פיאט טורקיה | FIORINO 1.4 | 2009 | 01/09/2026 | 22:25:24 |
| 1024563 | סקניה-שוודיה | - | 2008 | 01/09/2026 | 22:25:24 |
| 5018832 | טויוטה טורקיה | COROLLA | 2015 | 01/09/2026 | 22:25:24 |
| 37624302 | פולקסווגן גרמניה | PASSAT | 2021 | 01/09/2026 | 22:25:23 |
| 6880066 | טויוטה יפן | LEXUS IS 250 | 2008 | 01/09/2026 | 22:25:22 |
| 2018337 | טויוטה יפן | RAV 4 | 2016 | 01/09/2026 | 22:25:20 |
| 73787302 | קיה קוריאה הדרומית | STONIC | 2021 | 01/09/2026 | 22:25:19 |
| 5903039 | יונדאי צ'כיה | I30 | 2016 | 01/09/2026 | 22:25:18 |
| 1463633 | ניסאן בריטניה | QASHQAI | 2015 | 01/09/2026 | 22:25:18 |
| 52165602 | טויוטה צרפת | YARIS | 2021 | 01/09/2026 | 22:25:17 |
| 7772586 | טויוטה צרפת | YARIS HYBRID | 2017 | 01/09/2026 | 22:25:16 |
| 1463633 | ניסאן בריטניה | QASHQAI | 2015 | 01/09/2026 | 22:25:15 |
| 30654103 | וולבו צרפת | - | 2024 | 01/09/2026 | 22:25:11 |
| 1463633 | ניסאן בריטניה | QASHQAI | 2015 | 01/09/2026 | 22:25:09 |
| 17861701 | יונדאי טורקיה | I10 | 2018 | 01/09/2026 | 22:25:07 |
| 1463633 | ניסאן בריטניה | QASHQAI | 2015 | 01/09/2026 | 22:25:06 |
| 4658458 | פיאט איטליה | PUNT0 60 | 2006 | 01/09/2026 | 22:25:02 |
| 4730167 | קיה קוריאה הדרומית | CARNIVAL | 2008 | 01/09/2026 | 22:25:00 |
| 77780803 | יונדאי קוריאה הדרומית | KONA HYBRID | 2024 | 01/09/2026 | 22:24:59 |
| 44430001 | טויוטה תאילנד | HILUX | 2018 | 01/09/2026 | 22:24:58 |
| 36994101 | סקודה צ'כיה | RAPID | 2018 | 01/09/2026 | 22:24:57 |
| 5048276 | יונדאי טורקיה | I20 | 2011 | 01/09/2026 | 22:24:51 |
| 79488102 | מזדה תאילנד | MAZDA 2 | 2022 | 01/09/2026 | 22:24:50 |
| 6946671 | מזדה יפן | MAZDA 6 | 2011 | 01/09/2026 | 22:24:43 |
| 72682301 | פיאט טורקיה | FIAT DOBLO | 2019 | 01/09/2026 | 22:24:43 |
| 37598904 | ב מ וו ארהב" | XM 50E | 2025 | 01/09/2026 | 22:24:43 |
| 19494102 | טויוטה טורקיה | C-HR HYBRID | 2020 | 01/09/2026 | 22:24:43 |
| 3564870 | טויוטה יפן | COROLLA | 2010 | 01/09/2026 | 22:24:40 |
| 7053865 | מזדה יפן | MAZDA 6 | 2008 | 01/09/2026 | 22:24:40 |
| 45635602 | סקודה צ'כיה | OCTAVIA | 2021 | 01/09/2026 | 22:24:38 |
| 7053865 | מזדה יפן | MAZDA 6 | 2008 | 01/09/2026 | 22:24:37 |
| 1487066 | שברולט קוריאה הדרומית | OPTRA | 2009 | 01/09/2026 | 22:24:36 |
| 80289001 | קרייזלר ארהב" | JEEP GRAND CHER | 2019 | 01/09/2026 | 22:24:36 |
| 50983803 | מזדה יפן | MAZDA3 | 2023 | 01/09/2026 | 22:24:34 |
| 8996032 | שברולט קנדה | IMPALA LTZ | 2015 | 01/09/2026 | 22:24:33 |
| 9836927 | טויוטה יפן | COROLLA | 2000 | 01/09/2026 | 22:24:33 |
| 6869451 | מזדה יפן | MAZDA 6 | 2004 | 01/09/2026 | 22:24:29 |
| 1027773 | יונדאי טורקיה | ACCENT | 2010 | 01/09/2026 | 22:24:27 |
| 7561837 | ניסאן בריטניה | QASHQAI | 2016 | 01/09/2026 | 22:24:26 |
| 62763901 | סקודה צ'כיה | OCTAVIA | 2019 | 01/09/2026 | 22:24:16 |
| 6354686 | טויוטה צרפת | YARIS | 2017 | 01/09/2026 | 22:24:15 |
| 3827678 | הונדה בריטניה | CIVIC | 2012 | 01/09/2026 | 22:24:13 |
| 72380401 | איסוזו תאילנד | PICK-UP | 2020 | 01/09/2026 | 22:24:12 |
| 19880201 | דאצ'יה רומניה | DUSTER | 2018 | 01/09/2026 | 22:24:12 |
| 1023437 | טויוטה צרפת | YARIS | 2016 | 01/09/2026 | 22:24:09 |
| 1148961 | שברולט ארהב" | MALIBU | 2006 | 01/09/2026 | 22:24:00 |
| 1088068 | סוזוקי יפן | SX4 | 2009 | 01/09/2026 | 22:23:55 |
| 1013168 | קרייזלר מקסיקו | JOURNEY | 2008 | 01/09/2026 | 22:23:52 |
| 2956378 | וולבו בלגיה | C30 2.0 | 2011 | 01/09/2026 | 22:23:49 |
| 56172602 | יונדאי קוריאה הדרומית | IONIQ HYBRID | 2021 | 01/09/2026 | 22:23:47 |
| 4728934 | אופל ספרד | CORSA | 2016 | 01/09/2026 | 22:23:39 |
| 28756103 | סקניה-הולנד | - | 2025 | 01/09/2026 | 22:23:24 |
| 9649571 | ב מ וו ארה"ב | - | 2010 | 01/09/2026 | 22:23:19 |
| 80108601 | סובארו יפן | XV | 2019 | 01/09/2026 | 22:23:18 |
| 6354686 | טויוטה צרפת | YARIS | 2017 | 01/09/2026 | 22:23:08 |
| 1177714 | ניסאן ספרד | PATHFINDER | 2006 | 01/09/2026 | 22:23:07 |
| 4736214 | מזדה יפן | MAZDA3 | 2006 | 01/09/2026 | 22:23:07 |
| 8546634 | סיטרואן סלובקיה | C3 PICASSO | 2016 | 01/09/2026 | 22:23:05 |
| 3161919 | דייהטסו יפן | אפלאוז IL רגיל | 1997 | 01/09/2026 | 22:23:03 |
| 44464903 | קיה קוריאה הדרומית | SELTOS | 2023 | 01/09/2026 | 22:23:02 |
| 4168175 | מזדה יפן | MAZDA 3 | 2012 | 01/09/2026 | 22:23:00 |
| 34115004 | טויוטה ספרד | TOYOTA CITY | 2025 | 01/09/2026 | 22:23:00 |
| 19900903 | מיצובישי יפן | ECLIPSE CROSS | 2023 | 01/09/2026 | 22:23:00 |
| 4210667 | סקודה צ'כיה | ROOMSTER | 2010 | 01/09/2026 | 22:22:59 |
| 1096337 | טויוטה צרפת | YARIS | 2016 | 01/09/2026 | 22:22:59 |
| 37563901 | מרצדס בנץ גרמנ | - | 2018 | 01/09/2026 | 22:22:54 |
| 35345704 | בי ווי די סין | SEAL U | 2025 | 01/09/2026 | 22:22:53 |
| 42805401 | קיה קוריאה הדרומית | NIRO PHEV | 2019 | 01/09/2026 | 22:22:52 |
| 49375803 | סיאט ספרד | ARONA | 2023 | 01/09/2026 | 22:22:51 |
| 5227712 | סיאט ספרד | IBIZA FLOW | 2013 | 01/09/2026 | 22:22:51 |
| 15919901 | יונדאי קוריאה הדרומית | IONIQ HYBRID | 2018 | 01/09/2026 | 22:22:50 |
| 9698786 | וולבו בלגיה | - | 2017 | 01/09/2026 | 22:22:50 |
| 39974501 | סיאט ספרד | LEON CUPRA FL | 2018 | 01/09/2026 | 22:22:48 |
| 3333328 | מזדה יפן | מאזדה 121 | 1997 | 01/09/2026 | 22:22:48 |
| 64143901 | סיטרואן ספרד | BERLINGO | 2019 | 01/09/2026 | 22:22:48 |
| 4532936 | טויוטה יפן | COROLLA | 2002 | 01/09/2026 | 22:22:47 |
| 1059632 | יונדאי טורקיה | I20 | 2014 | 01/09/2026 | 22:22:43 |
| 67297703 | טויוטה יפן | RAV 4 HYBRID | 2024 | 01/09/2026 | 22:22:43 |
| 4189661 | פורד תורכיה | TOURNEO CONNECT | 2007 | 01/09/2026 | 22:22:42 |
| 2285164 | מיצובישי יפן | LANCER | 2008 | 01/09/2026 | 22:22:40 |
| 23432602 | גולדן דרגון סי | - | 2024 | 01/09/2026 | 22:22:40 |
| 72380401 | איסוזו תאילנד | PICK-UP | 2020 | 01/09/2026 | 22:22:39 |
| 9383575 | לנדרובר אנגליה | - | 2014 | 01/09/2026 | 22:22:39 |
| 3258731 | יונדאי קוריאה הדרומית | I25 | 2014 | 01/09/2026 | 22:22:39 |
| 4725265 | סיטרואן צרפת | C4 | 2008 | 01/09/2026 | 22:22:38 |
| 2357370 | טויוטה צרפת | YARIS | 2009 | 01/09/2026 | 22:22:37 |
| 1142774 | יונדאי צ'כיה | I30 | 2010 | 01/09/2026 | 22:22:35 |
| 43029502 | טויוטה טורקיה | COROLLA HSD SDN | 2021 | 01/09/2026 | 22:22:34 |
| 85723903 | סיאט ספרד | ARONA | 2024 | 01/09/2026 | 22:22:33 |
| 5844026 | קיה קוריאה הדרומית | NIRO PLUS | 2023 | 01/09/2026 | 22:22:32 |
| 37061301 | פולקסווגן גרמניה | GOLF | 2018 | 01/09/2026 | 22:22:30 |
| 42951901 | קיה סלובקיה | SPORTAGE | 2019 | 01/09/2026 | 22:22:27 |
| 27722002 | יונדאי קוריאה הדרומית | IONIQ HYBRID | 2020 | 01/09/2026 | 22:22:22 |
| 52242902 | טויוטה טורקיה | COROLLA HSD SDN | 2021 | 01/09/2026 | 22:22:21 |
| 7548132 | סוזוקי הונגריה | SX4 CROSSOVER | 2014 | 01/09/2026 | 22:22:20 |
| 1629712 | דימלרקריזלר-גר | - | 2013 | 01/09/2026 | 22:22:19 |
| 19880201 | דאצ'יה רומניה | DUSTER | 2018 | 01/09/2026 | 22:22:18 |
| 7548132 | סוזוקי הונגריה | SX4 CROSSOVER | 2014 | 01/09/2026 | 22:22:17 |
| 33310404 | באייק סין | EU5 | 2025 | 01/09/2026 | 22:22:17 |
| 14544204 | גולדן דרגון סי | - | 2025 | 01/09/2026 | 22:22:15 |
| 1019731 | מרצדס גרמניה | E250 | 2014 | 01/09/2026 | 22:22:15 |
| 80294603 | פורשה גרמניה | 911 GT3 | 2024 | 01/09/2026 | 22:22:14 |
| 62116802 | יונדאי קוריאה הדרומית | IONIQ HYBRID | 2021 | 01/09/2026 | 22:22:13 |
| 15919901 | יונדאי קוריאה הדרומית | IONIQ HYBRID | 2018 | 01/09/2026 | 22:22:12 |
| 26312403 | סקודה צ'כיה | SUPERB FL | 2023 | 01/09/2026 | 22:22:12 |
| 4627713 | שברולט ארהב" | - | 2012 | 01/09/2026 | 22:22:08 |
| 7558855 | מיצובישי יפן | OUTLANDER | 2017 | 01/09/2026 | 22:22:08 |
| 1329134 | מיצובישי תאילנד | SPACE STAR | 2015 | 01/09/2026 | 22:22:07 |
| 6354686 | טויוטה צרפת | YARIS | 2017 | 01/09/2026 | 22:22:06 |
| 1131266 | איסוזו תאילנד | PICK-UP | 2008 | 01/09/2026 | 22:22:00 |
| 13555 | פורד ארהב" | - | 1957 | 01/09/2026 | 22:22:00 |
| 80294603 | פורשה גרמניה | 911 GT3 | 2024 | 01/09/2026 | 22:21:58 |